createdAt,value
2018-02-02T00:01:57.047Z,3.70
2018-02-02T00:04:24.708Z,3.60
2018-02-02T00:06:52.929Z,3.60
2018-02-02T00:09:21.430Z,3.40
2018-02-02T00:11:49.837Z,3.40
2018-02-02T00:14:17.622Z,3.40
2018-02-02T00:16:45.228Z,3.40
2018-02-02T00:19:13.577Z,3.50
2018-02-02T00:21:41.197Z,3.50
2018-02-02T00:24:08.772Z,3.50
2018-02-02T00:26:36.389Z,3.60
2018-02-02T00:29:04.007Z,3.50
2018-02-02T00:31:31.584Z,3.50
2018-02-02T00:33:59.236Z,3.50
2018-02-02T00:36:26.821Z,3.40
2018-02-02T00:38:54.448Z,3.40
2018-02-02T00:41:22.121Z,3.40
2018-02-02T00:43:49.730Z,3.40
2018-02-02T00:46:17.314Z,3.40
2018-02-02T00:48:46.047Z,3.50
2018-02-02T00:54:13.809Z,3.50
2018-02-02T00:56:41.421Z,3.50
2018-02-02T00:59:09.065Z,3.50
2018-02-02T01:01:36.830Z,3.50
2018-02-02T01:04:04.420Z,3.50
2018-02-02T01:06:32.026Z,3.50
2018-02-02T01:09:00.476Z,3.40
2018-02-02T01:11:28.157Z,3.40
2018-02-02T01:13:56.637Z,3.40
2018-02-02T01:16:24.996Z,3.40
2018-02-02T01:18:52.594Z,3.40
2018-02-02T01:21:20.960Z,3.40
2018-02-02T01:23:48.576Z,3.40
2018-02-02T01:26:16.175Z,3.40
2018-02-02T01:28:43.760Z,3.30
2018-02-02T01:31:11.377Z,3.20
2018-02-02T01:33:38.989Z,3.10
2018-02-02T01:36:07.364Z,3.10
2018-02-02T01:38:35.083Z,3.10
2018-02-02T01:41:02.656Z,3.10
2018-02-02T01:43:30.627Z,3.10
2018-02-02T01:45:58.252Z,3.20
2018-02-02T01:48:25.830Z,3.30
2018-02-02T01:50:53.729Z,3.40
2018-02-02T01:53:21.892Z,3.40
2018-02-02T01:55:49.504Z,3.50
2018-02-02T01:58:17.112Z,3.50
2018-02-02T02:00:44.739Z,3.60
2018-02-02T02:03:13.080Z,3.60
2018-02-02T02:05:40.825Z,3.60
2018-02-02T02:08:08.438Z,3.60
2018-02-02T02:10:36.047Z,3.50
2018-02-02T02:13:03.673Z,3.40
2018-02-02T02:15:32.021Z,3.30
2018-02-02T02:17:59.659Z,3.30
2018-02-02T02:20:27.241Z,3.30
2018-02-02T02:22:54.850Z,3.30
2018-02-02T02:25:23.308Z,3.30
2018-02-02T02:27:52.445Z,3.50
2018-02-02T02:30:20.165Z,3.50
2018-02-02T02:32:47.779Z,3.50
2018-02-02T02:35:15.377Z,3.60
2018-02-02T02:37:42.956Z,3.60
2018-02-02T02:40:10.560Z,3.50
2018-02-02T02:42:38.133Z,3.60
2018-02-02T02:45:06.105Z,3.50
2018-02-02T02:47:33.704Z,3.50
2018-02-02T02:50:01.291Z,3.50
2018-02-02T02:52:28.902Z,3.40
2018-02-02T02:54:56.474Z,3.30
2018-02-02T02:57:24.141Z,3.30
2018-02-02T02:59:51.780Z,3.20
2018-02-02T03:02:19.397Z,3.20
2018-02-02T03:04:47.005Z,3.20
2018-02-02T03:07:14.612Z,3.20
2018-02-02T03:09:42.189Z,3.20
2018-02-02T03:12:09.843Z,3.30
2018-02-02T03:14:37.464Z,3.30
2018-02-02T03:17:05.068Z,3.40
2018-02-02T03:19:32.693Z,3.40
2018-02-02T03:22:00.273Z,3.50
2018-02-02T03:24:28.056Z,3.70
2018-02-02T03:26:55.661Z,3.80
2018-02-02T03:29:23.999Z,3.60
2018-02-02T03:31:51.604Z,3.60
2018-02-02T03:34:19.946Z,3.50
2018-02-02T03:36:47.555Z,3.50
2018-02-02T03:39:15.889Z,3.20
2018-02-02T03:41:43.640Z,3.20
2018-02-02T03:44:11.269Z,3.00
2018-02-02T03:46:38.868Z,2.90
2018-02-02T03:49:06.479Z,2.90
2018-02-02T03:51:34.817Z,2.90
2018-02-02T03:54:02.437Z,2.90
2018-02-02T03:56:30.772Z,2.80
2018-02-02T03:58:58.377Z,2.80
2018-02-02T04:01:26.753Z,2.80
2018-02-02T04:03:54.325Z,2.80
2018-02-02T04:06:22.693Z,2.90
2018-02-02T04:08:50.268Z,2.90
2018-02-02T04:11:18.635Z,3.10
2018-02-02T04:13:47.028Z,3.10
2018-02-02T04:16:15.413Z,3.20
2018-02-02T04:18:43.020Z,3.20
2018-02-02T04:21:12.746Z,3.30
2018-02-02T04:23:40.319Z,3.30
2018-02-02T04:26:07.920Z,3.30
2018-02-02T04:28:35.488Z,3.40
2018-02-02T04:31:03.202Z,3.40
2018-02-02T04:33:30.833Z,3.50
2018-02-02T04:35:58.912Z,3.50
2018-02-02T04:38:27.141Z,3.50
2018-02-02T04:40:55.533Z,3.50
2018-02-02T04:43:23.117Z,3.50
2018-02-02T04:45:50.768Z,3.50
2018-02-02T04:48:19.137Z,3.50
2018-02-02T04:50:46.725Z,3.40
2018-02-02T04:53:14.334Z,3.40
2018-02-02T04:55:41.908Z,3.40
2018-02-02T04:58:10.301Z,3.40
2018-02-02T05:00:38.069Z,3.30
2018-02-02T05:03:05.709Z,3.30
2018-02-02T05:05:33.421Z,3.30
2018-02-02T05:08:01.086Z,3.20
2018-02-02T05:10:29.521Z,3.20
2018-02-02T05:12:57.490Z,3.20
2018-02-02T05:15:25.787Z,3.30
2018-02-02T05:17:54.170Z,3.30
2018-02-02T05:20:21.904Z,3.30
2018-02-02T05:22:50.556Z,3.30
2018-02-02T05:25:19.001Z,3.20
2018-02-02T05:27:46.727Z,3.10
2018-02-02T05:30:14.436Z,3.10
2018-02-02T05:32:42.728Z,3.00
2018-02-02T05:35:11.953Z,3.00
2018-02-02T05:37:39.842Z,3.00
2018-02-02T05:40:07.521Z,2.90
2018-02-02T05:42:35.244Z,2.90
2018-02-02T05:45:02.991Z,2.80
2018-02-02T05:47:30.657Z,2.80
2018-02-02T05:49:59.483Z,2.80
2018-02-02T05:52:27.229Z,2.80
2018-02-02T05:54:56.549Z,3.00
2018-02-02T05:57:25.268Z,3.00
2018-02-02T05:59:52.904Z,3.20
2018-02-02T06:02:21.552Z,3.30
2018-02-02T06:04:49.200Z,3.40
2018-02-02T06:07:17.809Z,3.60
2018-02-02T06:09:46.927Z,3.70
2018-02-02T06:12:15.344Z,3.70
2018-02-02T06:14:42.969Z,3.60
2018-02-02T06:17:10.613Z,3.40
2018-02-02T06:19:39.062Z,3.40
2018-02-02T06:22:07.405Z,3.60
2018-02-02T06:24:35.833Z,3.80
2018-02-02T06:27:04.209Z,3.80
2018-02-02T06:29:31.889Z,4.00
2018-02-02T06:31:59.657Z,4.20
2018-02-02T06:34:27.345Z,4.20
2018-02-02T06:37:01.357Z,4.20
2018-02-02T06:39:29.106Z,4.10
2018-02-02T06:41:57.313Z,4.00
2018-02-02T06:44:25.700Z,3.80
2018-02-02T06:46:53.482Z,3.80
2018-02-02T06:49:21.146Z,3.60
2018-02-02T06:51:49.422Z,3.60
2018-02-02T06:54:18.208Z,3.30
2018-02-02T06:56:45.876Z,3.30
2018-02-02T06:59:13.573Z,3.20
2018-02-02T07:01:42.047Z,3.10
2018-02-02T07:04:10.141Z,3.10
2018-02-02T07:06:44.145Z,3.00
2018-02-02T07:09:16.246Z,3.00
2018-02-02T07:14:29.833Z,3.10
2018-02-02T07:17:02.782Z,3.20
2018-02-02T07:19:37.879Z,3.20
2018-02-02T07:22:06.286Z,3.30
2018-02-02T07:24:36.661Z,3.40
2018-02-02T07:29:43.501Z,3.50
2018-02-02T07:32:17.774Z,3.60
2018-02-02T07:34:46.323Z,3.60
2018-02-02T07:37:21.231Z,3.60
2018-02-02T07:39:49.802Z,3.70
2018-02-02T07:42:17.579Z,3.70
2018-02-02T07:44:46.236Z,3.80
2018-02-02T07:47:15.191Z,3.80
2018-02-02T07:49:42.885Z,3.80
2018-02-02T07:52:10.657Z,3.90
2018-02-02T07:54:38.279Z,3.90
2018-02-02T07:57:06.047Z,4.00
2018-02-02T07:59:33.871Z,4.00
2018-02-02T08:02:01.632Z,4.00
2018-02-02T08:04:30.132Z,4.00
2018-02-02T08:06:58.760Z,4.10
2018-02-02T08:09:28.414Z,4.10
2018-02-02T08:11:57.104Z,4.20
2018-02-02T08:14:25.057Z,4.40
2018-02-02T08:16:54.245Z,4.60
2018-02-02T08:19:21.984Z,4.50
2018-02-02T08:21:50.506Z,4.70
2018-02-02T08:24:18.533Z,4.70
2018-02-02T08:26:47.865Z,4.80
2018-02-02T08:29:15.582Z,4.80
2018-02-02T08:34:20.498Z,5.00
2018-02-02T08:36:48.260Z,5.10
2018-02-02T08:39:15.901Z,5.10
2018-02-02T08:41:43.877Z,5.10
2018-02-02T08:44:11.912Z,5.10
2018-02-02T08:46:40.925Z,5.10
2018-02-02T08:49:08.622Z,5.10
2018-02-02T08:51:36.253Z,5.10
2018-02-02T08:54:03.903Z,5.00
2018-02-02T08:56:32.956Z,5.10
2018-02-02T08:59:00.558Z,5.10
2018-02-02T09:01:35.125Z,5.10
2018-02-02T09:04:02.781Z,5.00
2018-02-02T09:06:30.446Z,5.10
2018-02-02T09:08:58.186Z,5.10
2018-02-02T09:11:26.590Z,5.10
2018-02-02T09:13:54.265Z,5.00
2018-02-02T09:16:22.677Z,5.10
2018-02-02T09:18:50.355Z,5.10
2018-02-02T09:21:18.057Z,5.20
2018-02-02T09:23:46.417Z,5.20
2018-02-02T09:26:14.804Z,5.30
2018-02-02T09:28:43.223Z,5.20
2018-02-02T09:31:11.692Z,5.30
2018-02-02T09:33:39.691Z,5.40
2018-02-02T09:36:08.194Z,5.40
2018-02-02T09:38:35.812Z,5.50
2018-02-02T09:41:03.521Z,5.50
2018-02-02T09:43:31.201Z,5.60
2018-02-02T09:45:59.087Z,5.70
2018-02-02T09:48:28.325Z,5.70
2018-02-02T09:50:55.967Z,5.70
2018-02-02T09:53:24.607Z,5.70
2018-02-02T09:55:52.681Z,5.70
2018-02-02T09:58:20.946Z,5.70
2018-02-02T10:00:48.545Z,5.70
2018-02-02T10:03:16.265Z,5.90
2018-02-02T10:05:43.990Z,5.90
2018-02-02T10:08:11.669Z,6.10
2018-02-02T10:10:41.198Z,6.10
2018-02-02T10:13:08.860Z,6.10
2018-02-02T10:15:36.596Z,6.20
2018-02-02T10:18:04.328Z,6.30
2018-02-02T10:20:32.080Z,6.40
2018-02-02T10:22:59.773Z,6.40
2018-02-02T10:25:28.225Z,6.40
2018-02-02T10:27:56.498Z,6.40
2018-02-02T10:30:24.185Z,6.40
2018-02-02T10:32:51.941Z,6.50
2018-02-02T10:35:19.625Z,6.60
2018-02-02T10:37:47.282Z,6.70
2018-02-02T10:40:15.693Z,6.80
2018-02-02T10:42:43.473Z,6.80
2018-02-02T10:45:11.172Z,6.70
2018-02-02T10:47:39.136Z,6.70
2018-02-02T10:50:06.888Z,6.70
2018-02-02T10:52:35.638Z,6.70
2018-02-02T10:55:04.782Z,6.80
2018-02-02T10:57:32.441Z,6.80
2018-02-02T11:00:01.521Z,7.00
2018-02-02T11:02:35.708Z,7.00
2018-02-02T11:05:03.450Z,7.00
2018-02-02T11:07:31.892Z,7.10
2018-02-02T11:09:59.569Z,7.10
2018-02-02T11:12:27.293Z,7.20
2018-02-02T11:14:56.780Z,7.10
2018-02-02T11:17:24.502Z,7.10
2018-02-02T11:19:52.165Z,7.00
2018-02-02T11:22:19.865Z,7.00
2018-02-02T11:24:47.549Z,7.10
2018-02-02T11:27:15.533Z,7.10
2018-02-02T11:29:43.175Z,7.20
2018-02-02T11:32:10.798Z,7.30
2018-02-02T11:34:38.536Z,7.60
2018-02-02T11:37:06.134Z,7.70
2018-02-02T11:39:34.730Z,7.80
2018-02-02T11:42:02.426Z,7.80
2018-02-02T11:44:30.110Z,7.70
2018-02-02T11:46:59.101Z,7.70
2018-02-02T11:49:26.770Z,7.70
2018-02-02T11:51:55.777Z,7.60
2018-02-02T11:54:24.210Z,7.50
2018-02-02T11:56:51.957Z,7.50
2018-02-02T11:59:20.087Z,7.60
2018-02-02T12:01:48.049Z,7.60
2018-02-02T12:04:15.725Z,7.70
2018-02-02T12:06:43.484Z,7.80
2018-02-02T12:09:11.967Z,7.90
2018-02-02T12:11:39.659Z,8.00
2018-02-02T12:14:08.091Z,8.00
2018-02-02T12:16:35.791Z,8.10
2018-02-02T12:19:03.493Z,8.10
2018-02-02T12:21:37.158Z,8.00
2018-02-02T12:24:05.932Z,8.00
2018-02-02T12:26:36.421Z,8.20
2018-02-02T12:29:11.313Z,8.20
2018-02-02T12:31:45.284Z,8.20
2018-02-02T12:34:13.065Z,8.20
2018-02-02T12:36:41.038Z,8.20
2018-02-02T12:39:13.636Z,8.20
2018-02-02T12:41:42.370Z,8.30
2018-02-02T12:44:10.101Z,8.40
2018-02-02T12:46:37.741Z,8.40
2018-02-02T12:49:05.442Z,8.40
2018-02-02T12:51:33.929Z,8.30
2018-02-02T12:54:01.626Z,8.30
2018-02-02T12:56:30.373Z,8.50
2018-02-02T12:58:58.406Z,8.60
2018-02-02T13:01:27.155Z,8.80
2018-02-02T13:03:55.692Z,8.80
2018-02-02T13:06:23.620Z,8.80
2018-02-02T13:08:52.176Z,8.90
2018-02-02T13:11:19.897Z,8.90
2018-02-02T13:13:47.610Z,9.00
2018-02-02T13:16:16.056Z,8.70
2018-02-02T13:18:43.761Z,8.80
2018-02-02T13:21:13.289Z,8.60
2018-02-02T13:23:41.694Z,8.60
2018-02-02T13:26:10.126Z,8.80
2018-02-02T13:28:37.809Z,8.70
2018-02-02T13:31:06.508Z,8.90
2018-02-02T13:33:34.289Z,9.10
2018-02-02T13:36:02.053Z,9.20
2018-02-02T13:38:29.732Z,9.30
2018-02-02T13:40:58.248Z,9.00
2018-02-02T13:43:26.064Z,9.00
2018-02-02T13:45:54.497Z,8.80
2018-02-02T13:48:22.249Z,8.70
2018-02-02T13:50:49.995Z,8.80
2018-02-02T13:53:17.664Z,8.80
2018-02-02T13:55:45.393Z,8.90
2018-02-02T13:58:13.182Z,9.10
2018-02-02T14:00:42.012Z,9.20
2018-02-02T14:03:09.685Z,9.20
2018-02-02T14:05:38.119Z,9.40
2018-02-02T14:08:05.867Z,9.50
2018-02-02T14:10:33.557Z,9.50
2018-02-02T14:13:01.265Z,9.40
2018-02-02T14:15:29.582Z,9.20
2018-02-02T14:17:57.872Z,9.10
2018-02-02T14:20:25.559Z,8.90
2018-02-02T14:22:53.205Z,8.70
2018-02-02T14:25:21.516Z,8.60
2018-02-02T14:27:50.263Z,8.60
2018-02-02T14:30:18.490Z,8.70
2018-02-02T14:32:46.151Z,8.60
2018-02-02T14:35:13.811Z,8.50
2018-02-02T14:37:41.430Z,8.40
2018-02-02T14:40:09.941Z,8.50
2018-02-02T14:42:37.698Z,8.40
2018-02-02T14:45:05.791Z,8.40
2018-02-02T14:47:33.584Z,8.50
2018-02-02T14:50:01.225Z,8.50
2018-02-02T14:52:28.970Z,8.50
2018-02-02T14:54:56.749Z,8.50
2018-02-02T14:57:24.503Z,8.50
2018-02-02T14:59:52.285Z,8.40
2018-02-02T15:02:21.446Z,8.60
2018-02-02T15:04:49.189Z,9.70
2018-02-02T15:07:16.821Z,10.60
2018-02-02T15:09:45.605Z,12.30
2018-02-02T15:12:13.545Z,12.80
2018-02-02T15:14:42.021Z,14.50
2018-02-02T15:17:10.362Z,14.50
2018-02-02T15:19:38.836Z,15.10
2018-02-02T15:22:06.652Z,15.70
2018-02-02T15:24:34.463Z,15.60
2018-02-02T15:27:02.212Z,15.20
2018-02-02T15:29:29.904Z,13.80
2018-02-02T15:31:57.637Z,12.60
2018-02-02T15:34:25.717Z,11.60
2018-02-02T15:36:53.428Z,11.00
2018-02-02T15:39:21.107Z,10.70
2018-02-02T15:41:50.806Z,10.60
2018-02-02T15:44:18.482Z,10.20
2018-02-02T15:46:46.909Z,9.70
2018-02-02T15:49:14.716Z,9.30
2018-02-02T15:51:42.433Z,9.00
2018-02-02T15:54:10.716Z,9.80
2018-02-02T15:56:39.470Z,12.30
2018-02-02T15:59:07.995Z,12.30
2018-02-02T16:01:36.266Z,13.20
2018-02-02T16:04:08.691Z,14.60
2018-02-02T16:06:38.960Z,14.50
2018-02-02T16:09:06.766Z,14.50
2018-02-02T16:11:35.428Z,14.70
2018-02-02T16:14:03.212Z,14.70
2018-02-02T16:16:30.859Z,13.90
2018-02-02T16:18:59.135Z,12.60
2018-02-02T16:21:28.369Z,10.70
2018-02-02T16:23:56.161Z,10.60
2018-02-02T16:26:23.863Z,10.10
2018-02-02T16:28:51.628Z,9.70
2018-02-02T16:31:19.260Z,9.30
2018-02-02T16:33:47.915Z,9.00
2018-02-02T16:36:15.582Z,8.80
2018-02-02T16:38:43.403Z,8.60
2018-02-02T16:41:12.100Z,8.50
2018-02-02T16:43:41.571Z,8.20
2018-02-02T16:46:09.286Z,8.20
2018-02-02T16:48:37.378Z,8.10
2018-02-02T16:51:05.132Z,8.00
2018-02-02T16:53:33.553Z,7.80
2018-02-02T16:56:01.348Z,7.80
2018-02-02T16:58:29.950Z,7.80
2018-02-02T17:00:58.124Z,7.70
2018-02-02T17:03:26.621Z,7.70
2018-02-02T17:05:55.397Z,7.60
2018-02-02T17:08:23.093Z,7.60
2018-02-02T17:10:51.278Z,7.50
2018-02-02T17:13:19.010Z,7.50
2018-02-02T17:15:48.103Z,7.40
2018-02-02T17:18:15.835Z,7.40
2018-02-02T17:20:44.529Z,7.40
2018-02-02T17:23:13.198Z,7.40
2018-02-02T17:25:41.373Z,7.30
2018-02-02T17:28:09.601Z,7.40
2018-02-02T17:30:37.290Z,7.30
2018-02-02T17:33:06.656Z,7.30
2018-02-02T17:35:34.329Z,7.30
2018-02-02T17:38:01.958Z,7.30
2018-02-02T17:40:29.725Z,7.30
2018-02-02T17:42:57.424Z,7.30
2018-02-02T17:45:25.121Z,7.30
2018-02-02T17:47:53.658Z,7.30
2018-02-02T17:50:21.425Z,7.30
2018-02-02T17:52:49.184Z,7.30
2018-02-02T17:55:16.848Z,7.30
2018-02-02T17:57:44.608Z,7.40
2018-02-02T18:00:12.337Z,7.30
2018-02-02T18:02:40.117Z,7.30
2018-02-02T18:05:07.885Z,7.30
2018-02-02T18:07:35.545Z,7.30
2018-02-02T18:10:04.173Z,7.20
2018-02-02T18:12:31.799Z,7.10
2018-02-02T18:15:00.165Z,6.90
2018-02-02T18:17:27.759Z,6.90
2018-02-02T18:19:55.522Z,6.80
2018-02-02T18:22:23.123Z,6.80
2018-02-02T18:24:50.997Z,6.70
2018-02-02T18:27:18.625Z,6.70
2018-02-02T18:29:46.197Z,6.60
2018-02-02T18:32:13.796Z,6.60
2018-02-02T18:34:41.379Z,6.60
2018-02-02T18:37:09.757Z,6.60
2018-02-02T18:39:38.860Z,6.60
2018-02-02T18:42:06.474Z,6.50
2018-02-02T18:44:34.082Z,6.60
2018-02-02T18:47:01.731Z,6.60
2018-02-02T18:49:29.300Z,6.50
2018-02-02T18:51:57.021Z,6.50
2018-02-02T18:54:24.593Z,6.50
2018-02-02T18:56:52.171Z,6.50
2018-02-02T18:59:19.793Z,6.50
2018-02-02T19:01:47.380Z,6.50
2018-02-02T19:04:15.807Z,6.50
2018-02-02T19:06:43.441Z,6.50
2018-02-02T19:09:11.058Z,6.50
2018-02-02T19:11:38.630Z,6.50
2018-02-02T19:14:06.467Z,6.50
2018-02-02T19:16:34.090Z,6.50
2018-02-02T19:19:01.677Z,6.50
2018-02-02T19:21:29.255Z,6.50
2018-02-02T19:23:56.901Z,6.50
2018-02-02T19:26:24.483Z,6.40
2018-02-02T19:28:52.112Z,6.30
2018-02-02T19:31:19.712Z,6.30
2018-02-02T19:33:47.293Z,6.30
2018-02-02T19:36:14.916Z,6.30
2018-02-02T19:38:42.521Z,6.40
2018-02-02T19:41:10.897Z,6.30
2018-02-02T19:43:38.510Z,6.30
2018-02-02T19:46:06.094Z,6.10
2018-02-02T19:48:33.698Z,6.00
2018-02-02T19:51:01.308Z,5.90
2018-02-02T19:53:28.883Z,5.90
2018-02-02T19:55:56.518Z,6.10
2018-02-02T19:58:24.158Z,6.20
2018-02-02T20:00:51.760Z,6.20
2018-02-02T20:03:19.374Z,6.10
2018-02-02T20:05:47.746Z,6.10
2018-02-02T20:08:15.333Z,6.00
2018-02-02T20:10:42.943Z,6.10
2018-02-02T20:13:10.542Z,6.00
2018-02-02T20:15:38.156Z,5.90
2018-02-02T20:18:05.822Z,5.90
2018-02-02T20:20:33.453Z,5.80
2018-02-02T20:23:01.074Z,5.80
2018-02-02T20:25:28.701Z,5.80
2018-02-02T20:27:56.313Z,5.80
2018-02-02T20:30:24.082Z,5.80
2018-02-02T20:32:52.434Z,5.80
2018-02-02T20:35:20.018Z,5.80
2018-02-02T20:37:47.630Z,5.70
2018-02-02T20:40:15.224Z,5.60
2018-02-02T20:42:42.805Z,5.60
2018-02-02T20:45:10.460Z,5.60
2018-02-02T20:47:38.063Z,5.60
2018-02-02T20:50:05.756Z,5.50
2018-02-02T20:52:33.385Z,5.50
2018-02-02T20:55:00.997Z,5.50
2018-02-02T20:57:28.617Z,5.40
2018-02-02T20:59:56.193Z,5.40
2018-02-02T21:02:23.828Z,5.40
2018-02-02T21:04:51.453Z,5.30
2018-02-02T21:07:19.073Z,5.30
2018-02-02T21:09:46.723Z,5.30
2018-02-02T21:12:15.094Z,5.30
2018-02-02T21:14:42.713Z,5.30
2018-02-02T21:17:10.298Z,5.20
2018-02-02T21:19:37.901Z,5.20
2018-02-02T21:22:05.472Z,5.10
2018-02-02T21:24:33.626Z,5.20
2018-02-02T21:27:01.210Z,5.30
2018-02-02T21:29:29.576Z,5.30
2018-02-02T21:31:57.153Z,5.30
2018-02-02T21:34:24.766Z,5.20
2018-02-02T21:36:52.356Z,5.20
2018-02-02T21:39:19.968Z,5.30
2018-02-02T21:41:48.125Z,5.30
2018-02-02T21:44:15.708Z,5.40
2018-02-02T21:46:43.306Z,5.40
2018-02-02T21:49:10.900Z,5.40
2018-02-02T21:51:38.511Z,5.40
2018-02-02T21:54:06.160Z,5.40
2018-02-02T21:56:33.768Z,5.40
2018-02-02T21:59:01.486Z,5.30
2018-02-02T22:01:29.115Z,5.30
2018-02-02T22:03:57.489Z,5.40
2018-02-02T22:06:25.408Z,5.40
2018-02-02T22:08:53.049Z,5.40
2018-02-02T22:11:20.798Z,5.50
2018-02-02T22:13:48.609Z,5.40
2018-02-02T22:16:17.196Z,5.30
2018-02-02T22:18:44.825Z,5.30
2018-02-02T22:21:12.823Z,5.30
2018-02-02T22:23:40.473Z,5.30
2018-02-02T22:26:08.063Z,5.20
2018-02-02T22:28:35.709Z,5.10
2018-02-02T22:31:03.345Z,5.10
2018-02-02T22:33:30.961Z,5.10
2018-02-02T22:35:58.550Z,5.10
2018-02-02T22:38:26.282Z,5.10
2018-02-02T22:40:53.968Z,5.10
2018-02-02T22:43:21.708Z,5.10
2018-02-02T22:45:49.921Z,5.10
2018-02-02T22:48:17.875Z,5.10
2018-02-02T22:50:45.626Z,5.10
2018-02-02T22:53:13.305Z,5.00
2018-02-02T22:55:40.973Z,5.10
2018-02-02T22:58:08.930Z,5.00
2018-02-02T23:00:36.536Z,5.00
2018-02-02T23:03:06.637Z,5.00
2018-02-02T23:05:34.392Z,5.00
2018-02-02T23:08:03.189Z,5.00
2018-02-02T23:10:31.623Z,5.10
2018-02-02T23:13:00.036Z,5.00
2018-02-02T23:15:28.405Z,5.00
2018-02-02T23:17:56.118Z,4.90
2018-02-02T23:20:23.845Z,4.90
2018-02-02T23:22:52.297Z,5.00
2018-02-02T23:25:20.852Z,5.00
2018-02-02T23:27:48.804Z,5.00
2018-02-02T23:30:16.431Z,5.00
2018-02-02T23:32:44.826Z,5.00
2018-02-02T23:35:12.669Z,5.00
2018-02-02T23:37:40.257Z,5.00
2018-02-02T23:40:10.544Z,5.00
2018-02-02T23:42:38.936Z,5.00
2018-02-02T23:45:07.230Z,5.00
2018-02-02T23:47:34.820Z,5.00
2018-02-02T23:50:02.489Z,5.10
2018-02-02T23:52:30.185Z,5.10
2018-02-02T23:54:57.829Z,5.10
2018-02-02T23:57:25.540Z,5.20
2018-02-02T23:59:53.181Z,5.10
